Time;durP1;ratioP1;P1;durP2;ratioP2;P2;SDS_P1;SDS_P2;PMS_P1;PMS_P2;Temp;Humidity;BMP_temperature;BMP_pressure;BME280_temperature;BME280_humidity;BME280_pressure;Samples;Min_cycle;Max_cycle;Signal;HPM_P1;HPM_P2
2022/11/13 00:00:13;;;;;;;26.67;17.13;;;5.80;99.90;;;;;;6277944;22;20012;-89
2022/11/13 00:02:41;;;;;;;28.13;18.10;;;4.70;99.90;;;;;;6278239;22;20031;-89
2022/11/13 00:05:15;;;;;;;29.60;18.40;;;5.70;99.90;;;;;;6316459;22;20026;-88
2022/11/13 00:07:41;;;;;;;27.03;16.93;;;4.90;99.90;;;;;;6339905;22;20014;-89
2022/11/13 00:10:16;;;;;;;28.17;17.97;;;5.00;99.90;;;;;;6312333;22;20021;-89
2022/11/13 00:12:48;;;;;;;30.00;18.20;;;4.80;99.90;;;;;;6311214;22;20350;-88
2022/11/13 00:15:19;;;;;;;27.23;16.90;;;4.30;99.90;;;;;;6339343;22;20022;-89
2022/11/13 00:18:07;;;;;;;26.50;17.37;;;5.10;99.90;;;;;;6337355;22;20427;-89
2022/11/13 00:20:35;;;;;;;29.33;17.87;;;5.10;99.90;;;;;;6339193;22;20462;-89
2022/11/13 00:23:06;;;;;;;27.50;17.50;;;5.60;99.90;;;;;;6329621;22;20010;-89
2022/11/13 00:25:39;;;;;;;27.63;17.23;;;4.40;99.90;;;;;;6337431;22;20017;-89
2022/11/13 00:28:10;;;;;;;30.43;18.27;;;3.70;99.90;;;;;;6318015;22;20014;-87
2022/11/13 00:30:40;;;;;;;27.07;17.33;;;4.90;99.90;;;;;;6342195;22;20438;-90
2022/11/13 00:33:06;;;;;;;27.93;17.23;;;4.80;99.90;;;;;;6311809;22;20018;-89
2022/11/13 00:35:39;;;;;;;28.30;17.20;;;5.10;99.90;;;;;;6311448;22;20026;-89
2022/11/13 00:38:11;;;;;;;27.30;17.73;;;5.10;99.90;;;;;;6312031;22;20050;-89
2022/11/13 00:40:44;;;;;;;26.63;16.43;;;4.90;99.90;;;;;;6311065;22;20102;-89
2022/11/13 00:43:37;;;;;;;27.48;17.15;;;4.50;99.90;;;;;;6309897;22;20058;-89
2022/11/13 00:46:21;;;;;;;27.57;16.73;;;4.50;99.90;;;;;;6271623;22;20443;-89
2022/11/13 00:49:12;;;;;;;27.00;17.47;;;5.20;99.90;;;;;;6269062;22;20019;-89
2022/11/13 00:51:47;;;;;;;26.30;16.80;;;5.20;99.90;;;;;;6308165;22;20029;-89
2022/11/13 00:54:16;;;;;;;28.13;17.97;;;5.30;99.90;;;;;;6280024;22;20051;-89
2022/11/13 00:56:44;;;;;;;30.33;19.03;;;5.30;99.90;;;;;;6308015;22;20011;-89
2022/11/13 00:59:18;;;;;;;28.60;18.13;;;7.00;99.90;;;;;;6280490;22;20423;-88
2022/11/13 01:01:50;;;;;;;;;;;5.00;99.90;;;;;;6280441;22;20012;-90
2022/11/13 01:04:47;;;;;;;29.43;18.23;;;5.30;99.90;;;;;;6279352;22;19915;-89
2022/11/13 01:07:21;;;;;;;30.83;18.70;;;6.40;99.90;;;;;;6262765;22;20061;-89
2022/11/13 01:10:06;;;;;;;30.85;18.92;;;7.00;99.90;;;;;;6280521;22;20011;-89
2022/11/13 01:12:42;;;;;;;28.57;18.13;;;5.50;99.90;;;;;;6278500;22;20339;-89
2022/11/13 01:15:17;;;;;;;29.17;18.20;;;5.70;99.90;;;;;;6277464;22;20055;-89
2022/11/13 01:17:53;;;;;;;31.37;18.80;;;5.10;99.90;;;;;;6280466;22;20023;-89
2022/11/13 01:24:39;;;;;;;29.97;19.33;;;5.60;99.90;;;;;;6308024;22;20042;-89
2022/11/13 01:27:05;;;;;;;29.03;18.47;;;5.00;99.90;;;;;;6308810;22;20011;-89
2022/11/13 01:30:08;;;;;;;30.60;19.23;;;6.60;99.90;;;;;;6308630;22;20087;-89
2022/11/13 01:32:46;;;;;;;30.80;19.80;;;5.20;99.90;;;;;;6280681;22;20019;-89
2022/11/13 01:35:36;;;;;;;29.80;19.23;;;5.10;99.90;;;;;;6278878;22;20020;-89
2022/11/13 01:38:14;;;;;;;;;;;;;;;;;;;;;
2022/11/13 01:41:02;;;;;;;31.13;19.10;;;6.20;99.90;;;;;;6219013;22;20018;-88
2022/11/13 01:47:10;;;;;;;30.20;19.77;;;6.10;99.90;;;;;;6342944;22;20148;-90
2022/11/13 01:49:38;;;;;;;30.67;19.37;;;5.90;99.90;;;;;;6337787;22;20019;-90
2022/11/13 01:52:45;;;;;;;31.90;19.50;;;5.10;99.90;;;;;;6311861;22;20018;-89
2022/11/13 01:55:41;;;;;;;30.90;18.93;;;5.30;99.90;;;;;;6315641;22;20026;-89
2022/11/13 01:58:31;;;;;;;30.60;19.87;;;5.40;99.90;;;;;;6241676;23;20020;-89
2022/11/13 02:01:03;;;;;;;34.20;21.20;;;5.40;99.90;;;;;;6243431;23;20020;-89
2022/11/13 02:03:36;;;;;;;32.90;20.07;;;5.90;99.90;;;;;;6241707;23;20016;-89
2022/11/13 02:06:03;;;;;;;34.67;20.30;;;5.90;99.90;;;;;;6242727;23;20016;-89
2022/11/13 02:08:32;;;;;;;31.20;19.93;;;4.60;99.90;;;;;;6216973;23;20024;-89
2022/11/13 02:11:20;;;;;;;29.77;19.03;;;4.90;99.90;;;;;;6192396;23;20379;-89
2022/11/13 02:13:59;;;;;;;32.73;20.80;;;5.00;99.90;;;;;;6216528;23;20023;-90
2022/11/13 02:16:39;;;;;;;33.33;20.77;;;6.50;99.90;;;;;;6167470;23;20035;-89
2022/11/13 02:19:28;;;;;;;32.67;20.17;;;4.40;99.90;;;;;;6191696;23;20020;-89
2022/11/13 02:22:27;;;;;;;30.87;20.03;;;4.90;99.90;;;;;;6242775;23;20115;-89
2022/11/13 02:25:35;;;;;;;;;;;;;;;;;;;;;
2022/11/13 02:28:30;;;;;;;33.50;20.23;;;5.20;99.90;;;;;;6107400;22;20091;-89
2022/11/13 02:30:56;;;;;;;30.83;20.40;;;4.00;99.90;;;;;;6307313;22;20321;-89
2022/11/13 02:33:35;;;;;;;31.00;19.80;;;5.10;99.90;;;;;;6305059;22;20023;-89
2022/11/13 02:36:25;;;;;;;32.97;19.77;;;5.10;99.90;;;;;;6317236;22;20450;-89
2022/11/13 02:41:32;;;;;;;30.50;19.40;;;5.00;99.90;;;;;;6310419;22;20026;-88
2022/11/13 02:45:01;;;;;;;33.10;20.47;;;4.40;99.90;;;;;;6213743;23;20021;-88
2022/11/13 02:47:31;;;;;;;32.43;20.27;;;5.90;99.90;;;;;;6213565;23;20451;-89
2022/11/13 02:49:59;;;;;;;32.83;19.63;;;;;;;;;;6188511;23;20099;-89
2022/11/13 02:52:30;;;;;;;31.43;20.13;;;4.80;99.90;;;;;;6188150;23;20056;-88
2022/11/13 02:55:08;;;;;;;31.23;20.20;;;4.80;99.90;;;;;;6186055;22;20017;-89
2022/11/13 03:01:46;;;;;;;32.27;19.47;;;4.10;99.90;;;;;;6278153;22;20022;-89
2022/11/13 03:04:48;;;;;;;31.17;19.50;;;4.40;99.90;;;;;;6188218;23;20025;-89
2022/11/13 03:07:24;;;;;;;29.60;19.20;;;4.30;99.90;;;;;;6198232;23;20095;-89
2022/11/13 03:10:26;;;;;;;32.77;20.43;;;3.70;99.90;;;;;;6211449;23;20032;-89
2022/11/13 03:16:40;;;;;;;30.93;19.23;;;4.50;99.90;;;;;;6147914;23;20095;-89
2022/11/13 03:19:11;;;;;;;32.53;20.63;;;3.40;99.90;;;;;;6172832;23;20025;-89
2022/11/13 03:21:42;;;;;;;33.17;20.20;;;4.80;99.90;;;;;;6183416;23;20088;-89
2022/11/13 03:24:10;;;;;;;33.53;20.47;;;4.70;99.90;;;;;;6259887;22;20022;-89
2022/11/13 03:27:13;;;;;;;29.07;19.17;;;4.10;99.90;;;;;;6331382;22;20034;-89
2022/11/13 03:33:09;;;;;;;32.77;20.30;;;5.50;99.90;;;;;;6277846;22;20020;-89
2022/11/13 03:35:41;;;;;;;33.43;19.73;;;4.50;99.90;;;;;;6275724;22;20047;-88
2022/11/13 03:38:42;;;;;;;33.90;19.27;;;4.10;99.90;;;;;;6278010;22;20739;-89
2022/11/13 03:44:29;;;;;;;31.83;19.70;;;4.20;99.90;;;;;;6218134;23;20043;-89
2022/11/13 03:47:04;;;;;;;35.73;20.67;;;5.60;99.90;;;;;;6195044;23;20021;-89
2022/11/13 03:49:41;;;;;;;31.93;19.83;;;4.00;99.90;;;;;;6188868;23;20016;-89
2022/11/13 03:52:09;;;;;;;31.30;19.70;;;4.00;99.90;;;;;;6189801;23;20099;-89
2022/11/13 03:54:38;;;;;;;29.90;19.67;;;3.40;99.90;;;;;;6215999;23;20012;-89
2022/11/13 03:57:16;;;;;;;32.03;20.33;;;5.60;99.90;;;;;;6189346;23;20526;-89
2022/11/13 03:59:50;;;;;;;33.27;20.37;;;4.50;99.90;;;;;;6216661;23;20016;-89
2022/11/13 04:02:16;;;;;;;31.00;19.83;;;3.50;99.90;;;;;;6216379;23;20336;-89
2022/11/13 04:04:50;;;;;;;31.60;20.17;;;3.90;99.90;;;;;;6189584;23;20107;-89
2022/11/13 04:07:22;;;;;;;33.00;20.88;;;4.10;99.90;;;;;;6189290;23;20083;-89
2022/11/13 04:13:23;;;;;;;31.57;20.07;;;4.00;99.90;;;;;;6306913;22;20525;-89
2022/11/13 04:15:53;;;;;;;29.87;19.60;;;4.60;99.90;;;;;;6308146;22;20022;-89
2022/11/13 04:18:31;;;;;;;30.77;19.67;;;4.00;99.90;;;;;;6306846;22;20369;-89
2022/11/13 04:21:04;;;;;;;30.40;19.63;;;5.00;99.90;;;;;;6308089;22;20016;-88
2022/11/13 04:23:36;;;;;;;30.13;19.98;;;5.10;99.90;;;;;;6280113;22;20098;-89
2022/11/13 04:26:05;;;;;;;33.33;20.57;;;4.10;99.90;;;;;;6227317;22;20069;-89
2022/11/13 04:28:31;;;;;;;29.70;19.57;;;5.60;99.90;;;;;;6303464;22;20023;-89
2022/11/13 04:31:05;;;;;;;33.13;19.63;;;3.50;99.90;;;;;;6280107;22;20030;-89
2022/11/13 04:33:34;;;;;;;34.33;21.23;;;4.20;99.90;;;;;;6284855;22;20015;-89
2022/11/13 04:36:11;;;;;;;34.53;21.70;;;3.70;99.90;;;;;;6309599;22;20018;-89
2022/11/13 04:38:46;;;;;;;32.70;21.30;;;4.30;99.90;;;;;;6279901;22;20019;-89
2022/11/13 04:47:32;;;;;;;32.00;20.83;;;3.60;99.90;;;;;;6306505;22;20466;-89
2022/11/13 04:50:35;;;;;;;35.47;21.37;;;4.10;99.90;;;;;;6306591;22;20026;-89
2022/11/13 04:56:12;;;;;;;31.87;21.17;;;4.50;99.90;;;;;;6249282;22;20016;-89
2022/11/13 04:58:47;;;;;;;32.93;21.80;;;5.40;99.90;;;;;;6308338;22;20019;-89
2022/11/13 05:01:18;;;;;;;31.43;20.40;;;4.30;99.90;;;;;;6278548;22;20025;-89
2022/11/13 05:04:13;;;;;;;32.70;20.47;;;6.30;99.90;;;;;;6279609;22;20019;-88
2022/11/13 05:06:47;;;;;;;32.57;20.47;;;4.90;99.90;;;;;;6305978;22;20082;-89
2022/11/13 05:09:24;;;;;;;32.70;21.23;;;5.40;99.90;;;;;;6279737;22;20054;-89
2022/11/13 05:11:56;;;;;;;36.80;21.73;;;5.30;99.90;;;;;;6280271;22;20019;-89
2022/11/13 05:14:28;;;;;;;31.00;20.03;;;4.90;99.90;;;;;;6278498;22;20022;-89
2022/11/13 05:16:53;;;;;;;30.70;20.33;;;5.60;99.90;;;;;;6278780;22;20057;-87
2022/11/13 05:22:35;;;;;;;32.03;19.80;;;3.60;99.90;;;;;;6278260;22;20023;-89
2022/11/13 05:25:01;;;;;;;32.00;20.00;;;4.80;99.90;;;;;;6280655;22;20384;-89
2022/11/13 05:27:31;;;;;;;34.83;20.03;;;3.80;99.90;;;;;;6283760;22;20054;-89
2022/11/13 05:30:06;;;;;;;29.35;18.80;;;5.20;99.90;;;;;;6277383;22;20015;-89
2022/11/13 05:32:35;;;;;;;31.23;19.13;;;3.90;99.90;;;;;;6281115;22;20019;-89
2022/11/13 05:35:12;;;;;;;31.67;19.03;;;3.90;99.90;;;;;;6315801;22;20493;-89
2022/11/13 05:37:41;;;;;;;28.47;18.50;;;3.80;99.90;;;;;;6280382;22;20076;-89
2022/11/13 05:40:10;;;;;;;28.70;19.43;;;4.10;99.90;;;;;;6280380;22;20375;-89
2022/11/13 05:42:44;;;;;;;31.50;20.20;;;3.70;99.90;;;;;;6305411;22;20007;-89
2022/11/13 05:45:16;;;;;;;29.27;18.63;;;4.40;99.90;;;;;;6280018;22;20459;-89
2022/11/13 05:47:51;;;;;;;31.03;19.40;;;4.10;99.90;;;;;;6280823;22;20018;-89
2022/11/13 05:50:21;;;;;;;28.30;18.97;;;3.70;99.90;;;;;;6223682;22;20016;-89
2022/11/13 05:52:50;;;;;;;29.37;19.50;;;3.50;99.90;;;;;;6218121;23;20023;-89
2022/11/13 05:55:21;;;;;;;30.97;19.87;;;5.50;99.90;;;;;;6216081;22;20078;-89
2022/11/13 05:58:04;;;;;;;28.83;18.40;;;3.40;99.90;;;;;;6218973;23;20020;-89
2022/11/13 06:00:39;;;;;;;31.87;19.90;;;3.50;99.90;;;;;;6245690;23;20031;-89
2022/11/13 06:03:04;;;;;;;33.37;20.37;;;4.00;99.90;;;;;;6244268;23;20090;-89
2022/11/13 06:06:01;;;;;;;33.53;19.77;;;3.50;99.90;;;;;;6245290;23;20452;-89
2022/11/13 06:08:29;;;;;;;31.93;18.63;;;2.90;99.90;;;;;;6218543;23;20019;-89
2022/11/13 06:11:04;;;;;;;31.17;19.00;;;3.50;99.90;;;;;;6221677;23;20016;-88
2022/11/13 06:20:37;;;;;;;31.03;19.47;;;4.20;99.90;;;;;;6316852;22;20106;-89
2022/11/13 06:23:04;;;;;;;30.90;20.07;;;4.30;99.90;;;;;;6281305;22;20390;-89
2022/11/13 06:25:32;;;;;;;33.87;20.53;;;3.40;99.90;;;;;;6281293;22;20015;-89
2022/11/13 06:31:08;;;;;;;36.30;21.67;;;3.60;99.90;;;;;;6265538;22;20020;-89
2022/11/13 06:34:09;;;;;;;34.50;21.07;;;3.60;99.90;;;;;;6280278;22;20448;-89
2022/11/13 06:36:50;;;;;;;;;;;;;;;;;;;;;
2022/11/13 06:39:43;;;;;;;35.13;20.73;;;3.90;99.90;;;;;;6099731;23;20024;-88
2022/11/13 06:42:27;;;;;;;;;;;;;;;;;;;;;
2022/11/13 06:45:30;;;;;;;;;;;;;;;;;;;;;
2022/11/13 06:48:52;;;;;;;33.63;19.95;;;2.50;99.90;;;;;;6234640;22;20030;-89
2022/11/13 06:51:39;;;;;;;;;;;;;;;;;;;;;
2022/11/13 06:55:07;;;;;;;33.07;20.10;;;4.10;99.90;;;;;;6104040;23;20014;-89
2022/11/13 07:01:30;;;;;;;35.03;19.93;;;5.40;99.90;;;;;;6039743;23;20021;-88
2022/11/13 07:03:59;;;;;;;29.17;19.17;;;4.30;99.90;;;;;;6154839;23;20350;-89
2022/11/13 07:10:09;;;;;;;32.63;19.77;;;2.80;99.90;;;;;;6277751;22;20102;-88
2022/11/13 07:12:38;;;;;;;31.20;19.70;;;2.50;99.90;;;;;;6206914;22;20075;-88
2022/11/13 07:15:38;;;;;;;31.90;18.93;;;3.10;99.90;;;;;;6243148;23;20016;-89
2022/11/13 07:18:06;;;;;;;32.40;19.90;;;4.30;99.90;;;;;;6224938;22;20024;-89
2022/11/13 07:24:01;;;;;;;28.70;18.80;;;3.00;99.90;;;;;;6248178;23;20043;-88
2022/11/13 07:30:12;;;;;;;;;;;;;;;;;;;;;
2022/11/13 07:33:05;;;;;;;34.23;19.27;;;2.90;99.90;;;;;;6218212;23;20388;-89
2022/11/13 07:35:50;;;;;;;;;;;;;;;;;;;;;
2022/11/13 07:38:39;;;;;;;30.17;18.80;;;3.50;99.90;;;;;;6158658;23;20024;-89
2022/11/13 07:41:40;;;;;;;;;;;3.20;99.90;;;;;;6124502;23;20021;-89
2022/11/13 07:44:17;;;;;;;32.80;21.77;;;3.10;99.90;;;;;;6184225;23;19924;-89
2022/11/13 07:46:46;;;;;;;35.30;21.83;;;5.30;99.90;;;;;;6189584;23;20032;-88
2022/11/13 07:49:11;;;;;;;34.37;20.80;;;3.00;99.90;;;;;;6223281;23;20012;-88
2022/11/13 07:51:42;;;;;;;32.50;20.70;;;3.20;99.90;;;;;;6246947;23;20336;-87
2022/11/13 07:54:23;;;;;;;34.80;20.73;;;3.10;99.90;;;;;;6220484;23;20020;-90
2022/11/13 07:57:06;;;;;;;32.20;19.97;;;4.40;99.90;;;;;;6250786;23;20008;-88
2022/11/13 07:59:35;;;;;;;32.93;20.37;;;3.30;99.90;;;;;;6247603;23;20027;-87
2022/11/13 08:02:19;;;;;;;30.97;19.23;;;3.50;99.90;;;;;;6219190;23;20094;-87
2022/11/13 08:04:46;;;;;;;32.70;20.63;;;5.60;99.90;;;;;;6236213;22;20027;-87
2022/11/13 08:10:45;;;;;;;31.60;19.20;;;4.30;99.90;;;;;;6298651;22;20031;-87
2022/11/13 08:13:14;;;;;;;28.90;18.93;;;5.40;99.90;;;;;;6280023;22;20033;-87
2022/11/13 08:15:47;;;;;;;29.37;19.53;;;4.80;99.90;;;;;;6278983;22;20016;-88
2022/11/13 08:18:27;;;;;;;30.92;21.50;;;5.20;99.90;;;;;;6279381;22;20015;-87
2022/11/13 08:21:06;;;;;;;28.43;18.80;;;4.50;99.90;;;;;;6277612;22;20015;-88
2022/11/13 08:26:48;;;;;;;29.73;19.17;;;4.40;99.90;;;;;;6251583;22;20027;-87
2022/11/13 08:29:23;;;;;;;29.67;19.27;;;4.30;99.90;;;;;;6279893;22;20081;-86
2022/11/13 08:31:48;;;;;;;27.90;18.30;;;4.20;99.90;;;;;;6306872;22;20019;-86
2022/11/13 08:34:27;;;;;;;27.93;18.57;;;5.30;99.90;;;;;;6279740;22;20080;-86
2022/11/13 08:36:53;;;;;;;26.67;18.03;;;5.00;99.90;;;;;;6280240;22;20026;-86
2022/11/13 08:39:18;;;;;;;29.50;19.40;;;5.20;99.90;;;;;;6279088;22;20015;-86
2022/11/13 08:41:53;;;;;;;28.10;18.57;;;4.30;99.90;;;;;;6279558;22;20347;-85
2022/11/13 08:47:22;;;;;;;26.63;17.93;;;4.80;99.90;;;;;;6307224;22;20034;-87
2022/11/13 08:50:38;;;;;;;26.67;17.70;;;4.60;99.90;;;;;;6304572;22;20450;-86
2022/11/13 08:54:19;;;;;;;24.83;16.57;;;4.90;99.90;;;;;;6250994;22;20324;-86
2022/11/13 08:57:34;;;;;;;26.73;17.37;;;5.10;99.90;;;;;;6307014;22;20019;-86
2022/11/13 09:00:25;;;;;;;;;;;4.50;99.90;;;;;;6306588;22;20103;-87
2022/11/13 09:02:59;;;;;;;26.57;17.97;;;6.20;99.90;;;;;;6279821;22;19922;-86
2022/11/13 09:05:28;;;;;;;;;;;5.20;99.90;;;;;;6279259;22;20395;-86
2022/11/13 09:08:09;;;;;;;24.33;16.83;;;5.40;99.90;;;;;;6306005;22;19937;-86
2022/11/13 09:11:28;;;;;;;25.20;16.47;;;5.40;99.90;;;;;;6217867;23;20437;-86
2022/11/13 09:15:02;;;;;;;24.50;15.67;;;6.20;99.90;;;;;;6187610;23;20028;-86
2022/11/13 09:18:18;;;;;;;22.50;15.73;;;5.90;99.90;;;;;;6191043;23;20020;-86
2022/11/13 09:24:32;;;;;;;24.77;15.83;;;6.70;99.90;;;;;;6194247;23;20029;-87
2022/11/13 09:27:07;;;;;;;22.57;15.10;;;6.60;99.90;;;;;;6214749;23;20449;-86
2022/11/13 09:29:39;;;;;;;23.73;16.03;;;5.80;99.90;;;;;;6188716;23;20429;-86
2022/11/13 09:32:23;;;;;;;22.60;14.53;;;6.10;99.90;;;;;;6193066;23;20016;-86
2022/11/13 09:35:02;;;;;;;22.77;15.10;;;8.00;99.90;;;;;;6188721;23;20025;-86
2022/11/13 09:37:37;;;;;;;23.27;15.40;;;6.30;99.90;;;;;;6200082;22;20074;-86
2022/11/13 09:42:49;;;;;;;22.97;14.43;;;6.40;99.90;;;;;;6215367;23;20025;-86
2022/11/13 09:45:31;;;;;;;21.30;14.27;;;5.60;99.90;;;;;;6217854;23;20062;-86
2022/11/13 09:48:31;;;;;;;20.87;14.37;;;6.60;99.90;;;;;;6217792;23;20063;-86
2022/11/13 09:51:36;;;;;;;23.00;14.17;;;6.70;99.90;;;;;;6245274;23;20028;-86
2022/11/13 09:54:14;;;;;;;22.93;14.33;;;6.50;99.90;;;;;;6136351;23;20018;-86
2022/11/13 10:00:04;;;;;;;20.67;14.07;;;6.30;99.90;;;;;;6245614;23;20024;-86
2022/11/13 10:03:18;;;;;;;21.87;14.60;;;6.10;99.90;;;;;;6243906;23;20391;-86
2022/11/13 10:06:50;;;;;;;21.50;14.40;;;7.20;99.90;;;;;;6277706;22;20020;-86
2022/11/13 10:41:24;;;;;;;14.23;9.25;;;10.50;99.90;;;;;;6214624;23;20019;-87
2022/11/13 11:18:24;;;;;;;11.07;6.35;;;12.50;99.90;;;;;;6252238;22;20106;-86
2022/11/13 11:21:40;;;;;;;11.93;6.90;;;12.60;99.90;;;;;;6279307;22;20387;-85
2022/11/13 11:24:49;;;;;;;11.27;6.40;;;12.70;99.90;;;;;;6306937;22;20022;-84
2022/11/13 11:27:39;;;;;;;11.40;6.50;;;12.60;99.90;;;;;;6278216;22;20045;-84
2022/11/13 11:30:25;;;;;;;12.07;5.82;;;13.10;99.90;;;;;;6306937;22;20011;-84
2022/11/13 11:33:14;;;;;;;11.32;6.20;;;14.20;99.90;;;;;;6306078;22;20025;-84
2022/11/13 11:35:44;;;;;;;11.68;5.47;;;13.20;99.90;;;;;;6279734;22;20722;-84
2022/11/13 11:38:55;;;;;;;10.00;5.50;;;13.30;99.90;;;;;;6279315;22;20023;-84
2022/11/13 11:41:31;;;;;;;10.98;5.80;;;13.30;99.90;;;;;;6278219;22;20390;-84
2022/11/13 11:44:25;;;;;;;9.48;5.30;;;13.40;99.90;;;;;;6307192;22;20030;-84
2022/11/13 11:46:50;;;;;;;10.88;6.07;;;13.60;99.90;;;;;;6279182;22;20022;-84
2022/11/13 11:49:18;;;;;;;10.70;6.35;;;14.60;99.90;;;;;;6278857;22;20019;-84
2022/11/13 11:52:22;;;;;;;11.20;6.07;;;13.80;99.90;;;;;;6279214;22;20047;-84
2022/11/13 11:55:04;;;;;;;9.73;5.45;;;14.10;99.90;;;;;;6114042;22;20038;-83
2022/11/13 11:58:08;;;;;;;10.43;5.63;;;13.80;99.90;;;;;;6304101;22;20053;-84
2022/11/13 12:00:50;;;;;;;10.50;6.10;;;14.90;99.90;;;;;;6279287;22;20018;-84
2022/11/13 12:03:57;;;;;;;12.48;6.68;;;15.30;99.90;;;;;;6305733;22;20061;-84
2022/11/13 12:06:50;;;;;;;11.23;6.75;;;14.20;99.90;;;;;;6191121;22;20435;-84
2022/11/13 12:09:58;;;;;;;12.52;6.95;;;14.00;99.90;;;;;;6278441;22;20015;-87
2022/11/13 12:17:13;;;;;;;;;;;;;;;;;;;;;
2022/11/13 15:05:48;;;;;;;10.57;5.70;;;11.20;99.90;;;;;;6297157;22;20042;-88
2022/11/13 15:08:55;;;;;;;31.13;18.23;;;11.60;99.90;;;;;;6302370;22;20019;-87
2022/11/13 15:11:27;;;;;;;14.43;7.38;;;11.50;99.90;;;;;;6301998;22;20038;-86
2022/11/13 15:13:58;;;;;;;12.60;6.65;;;11.40;99.90;;;;;;6306326;22;20074;-86
2022/11/13 15:17:13;;;;;;;12.00;6.30;;;11.30;99.90;;;;;;6300446;22;20038;-86
2022/11/13 15:20:25;;;;;;;;;;;11.30;99.90;;;;;;6262359;22;20023;-86
2022/11/13 15:22:57;;;;;;;10.73;6.45;;;11.00;99.90;;;;;;6276605;22;19937;-85
2022/11/13 15:25:32;;;;;;;11.52;6.53;;;12.40;99.90;;;;;;6276528;22;20440;-86
2022/11/13 15:28:08;;;;;;;11.35;6.13;;;10.20;99.90;;;;;;6275161;22;20015;-86
2022/11/13 15:30:43;;;;;;;11.70;6.60;;;12.20;99.90;;;;;;6276749;22;20023;-85
2022/11/13 15:34:01;;;;;;;12.48;6.63;;;10.80;99.90;;;;;;6279449;22;20122;-87
2022/11/13 15:36:31;;;;;;;14.23;7.05;;;10.60;99.90;;;;;;6274367;22;20015;-86
2022/11/13 15:39:48;;;;;;;12.30;7.43;;;11.20;99.90;;;;;;6275289;22;20019;-86
2022/11/13 15:45:49;;;;;;;13.13;8.02;;;10.20;99.90;;;;;;6275665;22;20020;-87
2022/11/13 15:48:40;;;;;;;13.15;7.70;;;10.20;99.90;;;;;;6274988;22;20012;-86
2022/11/13 15:51:36;;;;;;;13.90;7.28;;;10.20;99.90;;;;;;6158298;23;20017;-86
2022/11/13 15:54:38;;;;;;;13.00;7.53;;;9.20;99.90;;;;;;6158117;23;20052;-87
2022/11/13 15:57:28;;;;;;;12.77;7.68;;;9.90;99.90;;;;;;6158980;23;20457;-86
2022/11/13 15:59:56;;;;;;;15.75;8.20;;;10.40;99.90;;;;;;6158377;23;20083;-86
2022/11/13 16:02:34;;;;;;;17.23;8.95;;;8.90;99.90;;;;;;6156729;23;20457;-86
2022/11/13 16:05:18;;;;;;;17.17;11.90;;;10.60;99.90;;;;;;6158341;23;20017;-86
2022/11/13 16:07:54;;;;;;;;;;;8.90;99.90;;;;;;6182696;23;20072;-86
2022/11/13 16:11:15;;;;;;;13.55;8.50;;;9.70;99.90;;;;;;6179637;23;19954;-86
2022/11/13 18:34:02;;;;;;;23.10;13.87;;;7.60;99.90;;;;;;6270540;22;20529;-85
2022/11/13 19:11:00;;;;;;;28.57;16.23;;;6.00;99.90;;;;;;5952994;24;20246;-88
2022/11/13 19:48:32;;;;;;;;;;;;;;;;;;;;;
2022/11/13 20:10:42;;;;;;;44.40;25.10;;;5.20;99.90;;;;;;6221123;23;20016;-87
2022/11/13 20:21:30;;;;;;;;;;;;;;;;;;;;;
2022/11/13 20:24:51;;;;;;;49.50;25.73;;;5.10;99.90;;;;;;6149315;22;21260;-88
2022/11/13 20:27:36;;;;;;;44.90;25.00;;;4.70;99.90;;;;;;6259183;22;20028;-89
2022/11/13 20:30:04;;;;;;;49.03;24.40;;;4.70;99.90;;;;;;6253318;22;20089;-88
2022/11/13 20:32:37;;;;;;;44.53;25.13;;;5.10;99.90;;;;;;6279781;22;20016;-88
2022/11/13 20:35:08;;;;;;;44.72;24.10;;;4.10;99.90;;;;;;6278985;22;20531;-88
2022/11/13 20:37:34;;;;;;;41.90;23.23;;;4.90;99.90;;;;;;6252773;22;20011;-88
2022/11/13 20:40:07;;;;;;;46.67;23.63;;;6.10;99.90;;;;;;6253268;22;20047;-88
2022/11/13 20:42:38;;;;;;;44.23;23.90;;;5.30;99.90;;;;;;6279987;22;20118;-88
2022/11/13 20:49:25;;;;;;;;;;;;;;;;;;;;;
2022/11/13 20:55:46;;;;;;;45.20;23.63;;;6.20;99.90;;;;;;6206610;22;20020;-87
2022/11/13 20:58:18;;;;;;;46.33;24.63;;;5.30;99.90;;;;;;6280649;22;20470;-87
2022/11/13 21:01:21;;;;;;;50.03;25.23;;;5.30;99.90;;;;;;6281749;22;20039;-88
2022/11/13 21:07:54;;;;;;;46.27;23.40;;;4.80;99.90;;;;;;6267894;22;20053;-89
2022/11/13 21:11:24;;;;;;;44.17;22.47;;;5.20;99.90;;;;;;6255620;22;20446;-89
2022/11/13 21:16:28;;;;;;;45.07;21.90;;;5.30;99.90;;;;;;6311185;22;20466;-89
2022/11/13 21:21:29;;;;;;;40.03;20.57;;;5.30;99.90;;;;;;6304481;22;20023;-89
2022/11/13 21:24:33;;;;;;;41.30;19.83;;;6.10;99.90;;;;;;6310162;22;20029;-89
2022/11/13 21:28:29;;;;;;;43.37;20.63;;;5.20;99.90;;;;;;6304493;22;20039;-89
2022/11/13 21:33:50;;;;;;;42.53;20.90;;;5.30;99.90;;;;;;6279739;22;20502;-88
2022/11/13 21:36:30;;;;;;;42.53;20.57;;;5.40;99.90;;;;;;6214975;23;20024;-87
2022/11/13 21:39:06;;;;;;;42.83;19.23;;;6.60;99.90;;;;;;6165444;23;20020;-88
2022/11/13 21:41:41;;;;;;;43.73;20.30;;;5.00;99.90;;;;;;6215584;23;20020;-88
2022/11/13 21:44:16;;;;;;;46.65;21.25;;;4.70;99.90;;;;;;6213439;23;20020;-88
2022/11/13 21:46:47;;;;;;;44.63;22.13;;;6.10;99.90;;;;;;6187583;23;20499;-88
2022/11/13 21:49:29;;;;;;;45.43;19.93;;;4.70;99.90;;;;;;6212907;23;20028;-88
2022/11/13 21:51:55;;;;;;;44.80;21.17;;;5.50;99.90;;;;;;6210615;23;20025;-87
2022/11/13 21:54:38;;;;;;;44.73;20.10;;;6.20;99.90;;;;;;6188188;23;20021;-88
2022/11/13 21:57:13;;;;;;;46.00;20.57;;;5.10;99.90;;;;;;6216184;23;20047;-88
2022/11/13 21:59:47;;;;;;;41.83;19.37;;;5.20;99.90;;;;;;6212634;23;20431;-88
2022/11/13 22:02:13;;;;;;;45.33;19.80;;;5.40;99.90;;;;;;6297099;22;20068;-87
2022/11/13 22:04:44;;;;;;;42.33;18.60;;;5.10;99.90;;;;;;6280767;22;20093;-88
2022/11/13 22:07:13;;;;;;;42.70;18.80;;;5.60;99.90;;;;;;6307718;22;20049;-88
2022/11/13 22:09:51;;;;;;;47.00;20.67;;;5.70;99.90;;;;;;6278857;22;20038;-87
2022/11/13 22:12:20;;;;;;;42.13;18.70;;;5.80;99.90;;;;;;6279449;22;20451;-87
2022/11/13 22:14:49;;;;;;;41.80;18.37;;;5.30;99.90;;;;;;6279151;22;20085;-87
2022/11/13 22:17:39;;;;;;;40.10;18.23;;;6.50;99.90;;;;;;6283668;22;20146;-87
2022/11/13 22:20:08;;;;;;;47.90;19.80;;;5.40;99.90;;;;;;6307299;22;20081;-87
2022/11/13 22:22:36;;;;;;;48.30;19.67;;;5.60;99.90;;;;;;6308468;22;20094;-87
2022/11/13 22:25:22;;;;;;;44.03;18.97;;;6.50;99.90;;;;;;6280019;22;20073;-86
2022/11/13 22:28:00;;;;;;;43.23;19.60;;;5.10;99.90;;;;;;6307565;22;20023;-87
2022/11/13 22:30:27;;;;;;;48.20;20.57;;;5.50;99.90;;;;;;6308244;22;20031;-87
2022/11/13 22:32:52;;;;;;;45.80;19.07;;;5.40;99.90;;;;;;6281513;22;20079;-87
2022/11/13 22:35:18;;;;;;;45.13;19.27;;;6.00;99.90;;;;;;6278972;22;20039;-87
2022/11/13 22:38:21;;;;;;;47.50;19.95;;;6.40;99.90;;;;;;6278191;22;20089;-88
2022/11/13 22:41:30;;;;;;;45.43;19.10;;;5.20;99.90;;;;;;6278652;22;20789;-88
2022/11/13 22:44:27;;;;;;;46.93;20.23;;;5.90;99.90;;;;;;6121981;23;20028;-89
2022/11/13 22:47:13;;;;;;;45.93;19.37;;;5.10;99.90;;;;;;6094912;23;20022;-90
2022/11/13 22:50:18;;;;;;;49.10;20.83;;;7.90;99.90;;;;;;6097740;23;20358;-91
2022/11/13 23:27:37;;;;;;;;;;;;;;;;;;;;;
